CheckWX is a tool to help pilots better visualize weather data.  It is not intended as a substitute for an official pre-flight weather briefing.

02:49:32 UTC

KHUM TAF
Houma-Terrebonne Airport
Houma, Louisiana, USA
KHUM 202320Z 2100/2124 12010KT P6SM SCT029 BKN060 FM211100 06005KT P6SM FEW045 SCT150 FM211400 09009KT P6SM SCT035 BKN150 FM211800 11012KT P6SM SCT015 BKN035

Sep-21@
00:00 UTC

Sep-21 @ 00:00 UTC

Sep-21@
11:00 UTC

Sep-21 @ 11:00 UTC

KHUM 202320Z 2100/2124 12010KT P6SM SCT029 BKN060
Wind
  • 120° at 10 KTS
Cloud Levels
  • Scattered at 2,900' AGL
  • Broken at 6,000' AGL

Sep-21@
11:00 UTC

Sep-21 @ 11:00 UTC

Sep-21@
14:00 UTC

Sep-21 @ 14:00 UTC

FM211100 06005KT P6SM FEW045 SCT150

From

From Standard forecast or significant change

Wind
  • 060° at 5 KTS
Cloud Levels
  • Few at 4,500' AGL
  • Scattered at 15,000' AGL

Sep-21@
14:00 UTC

Sep-21 @ 14:00 UTC

Sep-21@
18:00 UTC

Sep-21 @ 18:00 UTC

FM211400 09009KT P6SM SCT035 BKN150

From

From Standard forecast or significant change

Wind
  • 090° at 9 KTS
Cloud Levels
  • Scattered at 3,500' AGL
  • Broken at 15,000' AGL

Sep-21@
18:00 UTC

Sep-21 @ 18:00 UTC

Sep-22@
00:00 UTC

Sep-22 @ 00:00 UTC

FM211800 11012KT P6SM SCT015 BKN035

From

From Standard forecast or significant change

Wind
  • 110° at 12 KTS
Cloud Levels
  • Scattered at 1,500' AGL
  • Broken at 3,500' AGL